Time;durP1;ratioP1;P1;durP2;ratioP2;P2;SDS_P1;SDS_P2;PMS_P1;PMS_P2;Temp;Humidity;BMP_temperature;BMP_pressure;BME280_temperature;BME280_humidity;BME280_pressure;Samples;Min_cycle;Max_cycle;Signal;HPM_P1;HPM_P2
2021/03/25 00:02:18;;;;;;;35.08;13.57;;;;;;;;;;5014449;28;20027;-71
2021/03/25 00:04:45;;;;;;;34.95;13.07;;;;;;;;;;5017141;28;20112;-71
2021/03/25 00:07:13;;;;;;;29.92;13.13;;;;;;;;;;5007773;28;20115;-70
2021/03/25 00:09:39;;;;;;;29.83;13.00;;;;;;;;;;5013937;28;20041;-70
2021/03/25 00:12:05;;;;;;;28.50;13.05;;;;;;;;;;5015653;28;20124;-71
2021/03/25 00:14:31;;;;;;;31.50;11.30;;;;;;;;;;5012469;28;20040;-71
2021/03/25 00:16:56;;;;;;;36.22;12.60;;;;;;;;;;5014890;28;20799;-70
2021/03/25 00:19:24;;;;;;;29.75;11.93;;;;;;;;;;5020097;28;20083;-71
2021/03/25 00:21:52;;;;;;;25.70;11.98;;;;;;;;;;5012803;28;20553;-71
2021/03/25 00:24:21;;;;;;;35.72;12.13;;;;;;;;;;5014596;28;20114;-71
2021/03/25 00:26:49;;;;;;;29.60;12.38;;;;;;;;;;4998002;28;20032;-71
2021/03/25 00:29:15;;;;;;;29.65;13.10;;;;;;;;;;5012256;28;20049;-71
2021/03/25 00:31:41;;;;;;;32.55;13.15;;;;;;;;;;4997908;28;20094;-71
2021/03/25 00:34:11;;;;;;;32.28;13.60;;;;;;;;;;5012707;28;20057;-71
2021/03/25 00:36:39;;;;;;;35.28;12.75;;;;;;;;;;5015624;28;20040;-70
2021/03/25 00:39:08;;;;;;;31.13;12.45;;;;;;;;;;5016119;28;20144;-71
2021/03/25 00:41:36;;;;;;;31.73;13.95;;;;;;;;;;5018040;28;20029;-70
2021/03/25 00:44:06;;;;;;;25.50;11.70;;;;;;;;;;5019196;28;20929;-71
2021/03/25 00:46:37;;;;;;;38.08;13.15;;;;;;;;;;5008839;28;20152;-71
2021/03/25 00:49:07;;;;;;;32.20;12.65;;;;;;;;;;5022934;28;20055;-70
2021/03/25 00:51:38;;;;;;;35.15;13.52;;;;;;;;;;5000746;28;20069;-71
2021/03/25 00:54:06;;;;;;;36.10;12.85;;;;;;;;;;5018128;28;20045;-71
2021/03/25 00:56:32;;;;;;;33.65;12.55;;;;;;;;;;5018084;28;20033;-70
2021/03/25 00:59:00;;;;;;;34.45;12.82;;;;;;;;;;5006629;28;20207;-70
2021/03/25 01:01:25;;;;;;;37.53;13.73;;;;;;;;;;5020271;28;20154;-71
2021/03/25 01:03:53;;;;;;;30.25;13.85;;;;;;;;;;5017950;28;20045;-71
2021/03/25 01:06:19;;;;;;;39.00;14.98;;;;;;;;;;5033049;28;20037;-70
2021/03/25 01:08:44;;;;;;;32.97;13.65;;;;;;;;;;5018709;28;20491;-70
2021/03/25 01:11:16;;;;;;;31.52;13.40;;;;;;;;;;4999852;28;20311;-70
2021/03/25 01:13:41;;;;;;;40.80;13.98;;;;;;;;;;5019297;28;20034;-70
2021/03/25 01:16:15;;;;;;;30.92;13.68;;;;;;;;;;5022478;28;20982;-71
2021/03/25 01:18:44;;;;;;;27.25;12.50;;;;;;;;;;5013153;28;20112;-71
2021/03/25 01:21:12;;;;;;;36.53;14.27;;;;;;;;;;4996324;28;20086;-70
2021/03/25 01:23:39;;;;;;;35.10;14.48;;;;;;;;;;5002383;28;20040;-71
2021/03/25 01:26:05;;;;;;;35.25;15.38;;;;;;;;;;5018994;28;20034;-71
2021/03/25 01:28:35;;;;;;;33.25;14.25;;;;;;;;;;4996686;28;20142;-70
2021/03/25 01:31:06;;;;;;;33.63;15.45;;;;;;;;;;5001046;28;20059;-71
2021/03/25 01:33:33;;;;;;;35.72;13.88;;;;;;;;;;5006427;28;20025;-71
2021/03/25 01:36:01;;;;;;;30.80;12.75;;;;;;;;;;5018799;28;20694;-71
2021/03/25 01:38:29;;;;;;;30.00;13.45;;;;;;;;;;5013870;28;20033;-70
2021/03/25 01:41:01;;;;;;;34.63;13.45;;;;;;;;;;5003633;28;20033;-70
2021/03/25 01:43:27;;;;;;;33.38;14.93;;;;;;;;;;5020771;28;20582;-71
2021/03/25 01:46:11;;;;;;;37.08;14.35;;;;;;;;;;5000314;28;20034;-71
2021/03/25 01:48:38;;;;;;;30.63;13.52;;;;;;;;;;5017920;28;20124;-70
2021/03/25 01:51:27;;;;;;;31.35;13.65;;;;;;;;;;5009886;28;20120;-70
2021/03/25 01:54:08;;;;;;;29.02;13.10;;;;;;;;;;5016171;28;20037;-71
2021/03/25 01:56:54;;;;;;;29.13;14.02;;;;;;;;;;5013650;28;20038;-71
2021/03/25 01:59:41;;;;;;;41.07;15.23;;;;;;;;;;5016716;28;20033;-71
2021/03/25 02:02:25;;;;;;;32.67;15.00;;;;;;;;;;5015684;28;20021;-70
2021/03/25 02:04:59;;;;;;;36.90;13.73;;;;;;;;;;5017953;28;20423;-70
2021/03/25 02:07:30;;;;;;;32.28;12.85;;;;;;;;;;5017965;28;20040;-72
2021/03/25 02:10:17;;;;;;;35.33;14.80;;;;;;;;;;5007258;28;20030;-70
2021/03/25 02:13:02;;;;;;;37.70;15.10;;;;;;;;;;5016862;28;20044;-70
2021/03/25 02:15:28;;;;;;;38.28;16.13;;;;;;;;;;5014973;28;20479;-71
2021/03/25 02:18:05;;;;;;;39.03;14.73;;;;;;;;;;5013684;28;20102;-69
2021/03/25 02:20:33;;;;;;;33.90;14.40;;;;;;;;;;5000650;28;20058;-71
2021/03/25 02:23:07;;;;;;;37.45;15.35;;;;;;;;;;4998909;28;20829;-70
2021/03/25 02:25:41;;;;;;;35.92;14.65;;;;;;;;;;5015573;28;20028;-70
2021/03/25 02:28:15;;;;;;;35.70;14.38;;;;;;;;;;5017066;28;20075;-71
2021/03/25 02:30:41;;;;;;;;;;;;;;;;;;5018819;28;20058;-69
2021/03/25 02:33:10;;;;;;;31.33;12.95;;;;;;;;;;5014762;28;19936;-70
2021/03/25 02:35:38;;;;;;;36.95;14.68;;;;;;;;;;5019091;28;20021;-70
2021/03/25 02:38:09;;;;;;;35.67;13.40;;;;;;;;;;5016115;28;20083;-71
2021/03/25 02:40:41;;;;;;;35.38;14.38;;;;;;;;;;5017214;28;20033;-70
2021/03/25 02:43:21;;;;;;;34.97;14.10;;;;;;;;;;5017027;28;20036;-71
2021/03/25 02:45:49;;;;;;;35.00;13.93;;;;;;;;;;5020075;28;20029;-70
2021/03/25 02:48:20;;;;;;;42.53;16.52;;;;;;;;;;5016174;28;20045;-71
2021/03/25 02:51:03;;;;;;;43.85;15.35;;;;;;;;;;5014548;28;20037;-70
2021/03/25 02:53:38;;;;;;;35.22;14.35;;;;;;;;;;4994756;28;20039;-71
2021/03/25 02:56:20;;;;;;;38.22;15.07;;;;;;;;;;5021794;28;20021;-70
2021/03/25 02:58:57;;;;;;;41.20;14.60;;;;;;;;;;5014957;28;20033;-70
2021/03/25 03:01:25;;;;;;;50.47;16.75;;;;;;;;;;5014378;28;20026;-70
2021/03/25 03:04:17;;;;;;;48.03;17.05;;;;;;;;;;5015412;28;20698;-71
2021/03/25 03:06:51;;;;;;;41.83;16.17;;;;;;;;;;4997712;28;20039;-71
2021/03/25 03:09:21;;;;;;;37.83;15.33;;;;;;;;;;5014449;28;20051;-70
2021/03/25 03:11:50;;;;;;;41.25;15.93;;;;;;;;;;5012120;28;20086;-71
2021/03/25 03:14:30;;;;;;;39.80;15.18;;;;;;;;;;5016267;28;20044;-71
2021/03/25 03:17:02;;;;;;;42.15;14.48;;;;;;;;;;5015224;28;20029;-71
2021/03/25 03:19:30;;;;;;;;;;;;;;;;;;5017261;28;20033;-70
2021/03/25 03:21:59;;;;;;;43.33;17.10;;;;;;;;;;5016964;28;19924;-72
2021/03/25 03:24:27;;;;;;;39.55;15.10;;;;;;;;;;5016051;28;20527;-70
2021/03/25 03:27:15;;;;;;;45.45;17.38;;;;;;;;;;5000556;28;20304;-71
2021/03/25 03:29:44;;;;;;;41.58;18.23;;;;;;;;;;4998940;28;20049;-71
2021/03/25 03:32:24;;;;;;;43.40;17.92;;;;;;;;;;5018055;28;20039;-70
2021/03/25 03:34:55;;;;;;;45.13;15.50;;;;;;;;;;5016657;28;20060;-72
2021/03/25 03:37:28;;;;;;;53.28;17.10;;;;;;;;;;5015233;28;20124;-70
2021/03/25 03:39:55;;;;;;;50.53;17.65;;;;;;;;;;5016073;28;20025;-71
2021/03/25 03:42:22;;;;;;;50.13;18.52;;;;;;;;;;5015720;28;20088;-70
2021/03/25 03:44:51;;;;;;;40.20;17.30;;;;;;;;;;5010235;28;20061;-71
2021/03/25 03:47:19;;;;;;;47.05;17.08;;;;;;;;;;5000083;28;20087;-70
2021/03/25 03:49:49;;;;;;;38.00;15.50;;;;;;;;;;5014515;28;20035;-70
2021/03/25 03:52:17;;;;;;;44.65;18.80;;;;;;;;;;5012627;28;20444;-71
2021/03/25 03:54:44;;;;;;;42.40;16.88;;;;;;;;;;5018855;28;20037;-71
2021/03/25 03:57:27;;;;;;;47.22;17.45;;;;;;;;;;5019559;28;20659;-71
2021/03/25 04:00:00;;;;;;;42.58;16.33;;;;;;;;;;5018695;28;20064;-72
2021/03/25 04:02:40;;;;;;;39.78;17.20;;;;;;;;;;4995853;28;20040;-71
2021/03/25 04:05:20;;;;;;;48.42;17.40;;;;;;;;;;5013388;28;20091;-71
2021/03/25 04:07:55;;;;;;;42.50;17.33;;;;;;;;;;5016946;28;20035;-71
2021/03/25 04:10:29;;;;;;;45.65;17.10;;;;;;;;;;5013791;28;20033;-71
2021/03/25 04:13:00;;;;;;;37.65;15.40;;;;;;;;;;5011004;28;20041;-71
2021/03/25 04:15:32;;;;;;;45.95;17.33;;;;;;;;;;5013715;28;20065;-70
2021/03/25 04:18:00;;;;;;;46.65;18.75;;;;;;;;;;5014135;28;20120;-71
2021/03/25 04:20:28;;;;;;;43.40;18.33;;;;;;;;;;5015981;28;20029;-70
2021/03/25 04:22:57;;;;;;;44.80;17.27;;;;;;;;;;4999306;28;20029;-71
2021/03/25 04:25:31;;;;;;;38.17;14.95;;;;;;;;;;5013461;28;20049;-70
2021/03/25 04:28:00;;;;;;;47.25;19.15;;;;;;;;;;5001671;28;20585;-70
2021/03/25 04:30:31;;;;;;;55.05;17.33;;;;;;;;;;5016030;28;20049;-71
2021/03/25 04:32:59;;;;;;;57.40;18.95;;;;;;;;;;5004180;28;20627;-70
2021/03/25 04:35:26;;;;;;;45.47;17.48;;;;;;;;;;5017687;28;20033;-71
2021/03/25 04:37:55;;;;;;;44.75;17.17;;;;;;;;;;5000639;28;20034;-70
2021/03/25 04:40:35;;;;;;;48.53;18.23;;;;;;;;;;5014765;28;20087;-70
2021/03/25 04:43:01;;;;;;;47.50;18.70;;;;;;;;;;4998462;28;20091;-71
2021/03/25 04:45:53;;;;;;;55.33;20.65;;;;;;;;;;5015916;28;20918;-72
2021/03/25 04:48:26;;;;;;;49.45;19.02;;;;;;;;;;5016278;28;20078;-70
2021/03/25 04:50:58;;;;;;;53.57;19.17;;;;;;;;;;5014051;28;20052;-71
2021/03/25 04:53:34;;;;;;;45.80;18.30;;;;;;;;;;5008814;28;20029;-70
2021/03/25 04:56:01;;;;;;;57.90;19.60;;;;;;;;;;5019079;28;20195;-71
2021/03/25 04:58:33;;;;;;;58.58;19.13;;;;;;;;;;5001180;28;22053;-71
2021/03/25 05:01:07;;;;;;;59.65;20.77;;;;;;;;;;5014086;28;20573;-70
2021/03/25 05:03:33;;;;;;;50.25;19.45;;;;;;;;;;5014415;28;21982;-71
2021/03/25 05:06:02;;;;;;;54.97;21.08;;;;;;;;;;5015779;28;20098;-71
2021/03/25 05:08:33;;;;;;;53.67;21.08;;;;;;;;;;5015195;28;20075;-70
2021/03/25 05:11:09;;;;;;;59.13;20.88;;;;;;;;;;5012693;28;21105;-72
2021/03/25 05:13:38;;;;;;;53.75;20.30;;;;;;;;;;5015681;28;20952;-71
2021/03/25 05:16:22;;;;;;;61.45;21.73;;;;;;;;;;5014075;28;20118;-71
2021/03/25 05:18:49;;;;;;;;;;;;;;;;;;5012717;28;20138;-70
2021/03/25 05:21:21;;;;;;;42.13;18.15;;;;;;;;;;5014432;28;20301;-71
2021/03/25 05:23:55;;;;;;;55.58;19.88;;;;;;;;;;5011255;28;20098;-70
2021/03/25 05:26:29;;;;;;;66.97;19.80;;;;;;;;;;5014494;28;20029;-70
2021/03/25 05:29:00;;;;;;;57.08;20.70;;;;;;;;;;5004856;28;20469;-71
2021/03/25 05:31:29;;;;;;;53.45;20.17;;;;;;;;;;5018109;28;20036;-72
2021/03/25 05:33:55;;;;;;;59.30;21.83;;;;;;;;;;5034803;28;20043;-71
2021/03/25 05:36:24;;;;;;;55.53;20.30;;;;;;;;;;5016824;28;20049;-72
2021/03/25 05:38:58;;;;;;;54.22;19.40;;;;;;;;;;5033609;28;20148;-71
2021/03/25 05:41:32;;;;;;;57.72;20.05;;;;;;;;;;5016945;28;20029;-72
2021/03/25 05:43:57;;;;;;;;;;;;;;;;;;5020031;28;20028;-70
2021/03/25 05:46:29;;;;;;;56.25;20.10;;;;;;;;;;5017976;28;20525;-71
2021/03/25 05:48:57;;;;;;;62.00;20.33;;;;;;;;;;5018546;28;20071;-72
2021/03/25 05:51:38;;;;;;;65.47;21.23;;;;;;;;;;5020597;28;20131;-71
2021/03/25 05:54:24;;;;;;;65.50;21.55;;;;;;;;;;5017182;28;20033;-72
2021/03/25 05:57:11;;;;;;;54.35;20.65;;;;;;;;;;5020478;28;20033;-70
2021/03/25 06:00:09;;;;;;;56.35;20.33;;;;;;;;;;5015006;28;20049;-70
2021/03/25 06:02:37;;;;;;;54.55;20.83;;;;;;;;;;4989416;28;20065;-71
2021/03/25 06:05:08;;;;;;;54.03;21.75;;;;;;;;;;5016423;28;20033;-70
2021/03/25 06:07:38;;;;;;;56.60;20.70;;;;;;;;;;5016240;28;20115;-70
2021/03/25 06:10:17;;;;;;;51.65;19.17;;;;;;;;;;5005898;28;20048;-70
2021/03/25 06:13:09;;;;;;;55.17;20.60;;;;;;;;;;5017492;28;20036;-70
2021/03/25 06:15:52;;;;;;;53.50;21.20;;;;;;;;;;5007580;28;20029;-70
2021/03/25 06:18:29;;;;;;;59.05;22.52;;;;;;;;;;5017154;28;20025;-70
2021/03/25 06:21:17;;;;;;;61.15;21.30;;;;;;;;;;5011517;28;20040;-71
2021/03/25 06:23:57;;;;;;;56.00;21.67;;;;;;;;;;5013268;28;20059;-70
2021/03/25 06:26:39;;;;;;;63.22;22.70;;;;;;;;;;5013784;28;20060;-69
2021/03/25 06:29:20;;;;;;;57.00;21.58;;;;;;;;;;5008295;28;20072;-70
2021/03/25 06:31:56;;;;;;;57.20;21.85;;;;;;;;;;5016834;28;20037;-70
2021/03/25 06:34:27;;;;;;;58.75;22.58;;;;;;;;;;5016086;28;20046;-70
2021/03/25 06:36:58;;;;;;;54.10;21.38;;;;;;;;;;5014520;28;20361;-70
2021/03/25 06:39:33;;;;;;;58.75;22.52;;;;;;;;;;5016169;28;20079;-69
2021/03/25 06:42:13;;;;;;;53.60;21.70;;;;;;;;;;5017224;28;20625;-70
2021/03/25 06:45:02;;;;;;;60.15;23.05;;;;;;;;;;4995064;28;20044;-69
2021/03/25 06:47:30;;;;;;;56.72;21.25;;;;;;;;;;5016066;28;20025;-69
2021/03/25 06:49:58;;;;;;;52.58;21.83;;;;;;;;;;5020691;28;20033;-69
2021/03/25 06:52:31;;;;;;;63.05;22.52;;;;;;;;;;5010526;28;20052;-69
2021/03/25 06:55:03;;;;;;;69.00;23.60;;;;;;;;;;5017387;28;20029;-71
2021/03/25 06:57:37;;;;;;;60.58;21.98;;;;;;;;;;5014949;28;20044;-71
2021/03/25 07:00:05;;;;;;;53.60;22.27;;;;;;;;;;5015580;28;20041;-71
2021/03/25 07:02:33;;;;;;;58.22;22.77;;;;;;;;;;5017465;28;20059;-68
2021/03/25 07:05:04;;;;;;;56.90;21.52;;;;;;;;;;5035675;28;20032;-68
2021/03/25 07:07:32;;;;;;;56.83;22.80;;;;;;;;;;5031551;28;20038;-70
2021/03/25 07:10:00;;;;;;;64.88;24.42;;;;;;;;;;5020483;28;20030;-71
2021/03/25 07:12:29;;;;;;;61.65;22.70;;;;;;;;;;5016747;28;20469;-70
2021/03/25 07:14:56;;;;;;;58.78;22.95;;;;;;;;;;5016161;28;20055;-71
2021/03/25 07:17:30;;;;;;;60.35;23.30;;;;;;;;;;5018372;28;20657;-71
2021/03/25 07:19:56;;;;;;;52.45;22.70;;;;;;;;;;5017307;28;20044;-70
2021/03/25 07:22:31;;;;;;;60.42;22.05;;;;;;;;;;5020473;28;20848;-71
2021/03/25 07:25:29;;;;;;;51.53;21.83;;;;;;;;;;5019105;28;20120;-70
2021/03/25 07:27:58;;;;;;;60.65;23.55;;;;;;;;;;4961150;28;20114;-70
2021/03/25 07:30:37;;;;;;;58.10;23.52;;;;;;;;;;5010793;28;20048;-69
2021/03/25 07:33:10;;;;;;;53.75;23.67;;;;;;;;;;5012850;28;20053;-69
2021/03/25 07:35:44;;;;;;;54.05;23.33;;;;;;;;;;5017135;28;20075;-69
2021/03/25 07:38:32;;;;;;;49.47;22.20;;;;;;;;;;5021634;28;20025;-68
2021/03/25 07:41:24;;;;;;;59.83;22.85;;;;;;;;;;5018056;28;20144;-68
2021/03/25 07:43:58;;;;;;;59.97;24.13;;;;;;;;;;5011382;28;20042;-69
2021/03/25 07:46:32;;;;;;;51.90;23.58;;;;;;;;;;5015297;28;20421;-68
2021/03/25 07:49:00;;;;;;;54.60;23.70;;;;;;;;;;5012106;28;20064;-68
2021/03/25 07:51:42;;;;;;;55.22;24.05;;;;;;;;;;5015938;28;20647;-68
2021/03/25 07:54:16;;;;;;;54.92;24.20;;;;;;;;;;5018033;28;20115;-68
2021/03/25 07:56:57;;;;;;;49.70;21.85;;;;;;;;;;5017087;28;20506;-68
2021/03/25 07:59:27;;;;;;;53.80;22.98;;;;;;;;;;4998000;28;20148;-68
2021/03/25 08:01:58;;;;;;;62.60;24.77;;;;;;;;;;5016101;28;20028;-68
2021/03/25 08:04:25;;;;;;;53.25;23.30;;;;;;;;;;5014878;28;20186;-69
2021/03/25 08:07:05;;;;;;;56.88;23.20;;;;;;;;;;5014969;28;20035;-68
2021/03/25 08:09:43;;;;;;;53.45;24.08;;;;;;;;;;5015593;28;20521;-71
2021/03/25 08:12:19;;;;;;;64.93;24.45;;;;;;;;;;5016867;28;20061;-68
2021/03/25 08:14:50;;;;;;;51.47;22.48;;;;;;;;;;5000899;28;20101;-69
2021/03/25 08:17:24;;;;;;;50.25;22.98;;;;;;;;;;5019623;28;20541;-67
2021/03/25 08:19:58;;;;;;;51.85;22.40;;;;;;;;;;5014771;28;20039;-69
2021/03/25 08:22:34;;;;;;;59.28;24.25;;;;;;;;;;5010857;28;20064;-69
2021/03/25 08:25:09;;;;;;;45.20;20.90;;;;;;;;;;5001355;28;20136;-68
2021/03/25 08:27:34;;;;;;;;;;;;;;;;;;5013160;28;20091;-68
2021/03/25 08:30:12;;;;;;;50.72;20.98;;;;;;;;;;5013990;28;19921;-67
2021/03/25 08:32:57;;;;;;;57.50;22.75;;;;;;;;;;5006267;28;22016;-68
2021/03/25 08:35:23;;;;;;;41.47;21.60;;;;;;;;;;5014447;28;20119;-69
2021/03/25 08:37:51;;;;;;;47.55;21.73;;;;;;;;;;4994514;28;20044;-68
2021/03/25 08:40:22;;;;;;;51.65;21.40;;;;;;;;;;5015442;28;20028;-70
2021/03/25 08:42:55;;;;;;;46.78;20.80;;;;;;;;;;5030328;28;20051;-69
2021/03/25 08:45:43;;;;;;;46.00;20.55;;;;;;;;;;5009645;28;20128;-67
2021/03/25 08:48:14;;;;;;;46.67;18.90;;;;;;;;;;4999877;28;20139;-68
2021/03/25 08:50:45;;;;;;;36.28;18.17;;;;;;;;;;5013605;28;20040;-68
2021/03/25 08:53:14;;;;;;;40.50;18.92;;;;;;;;;;5014315;28;20115;-67
2021/03/25 08:55:42;;;;;;;42.95;18.70;;;;;;;;;;5014194;28;20167;-68
2021/03/25 08:58:15;;;;;;;40.92;16.77;;;;;;;;;;5012393;28;20040;-68
2021/03/25 09:00:42;;;;;;;41.65;16.52;;;;;;;;;;5014303;28;20040;-68
2021/03/25 09:03:11;;;;;;;38.55;17.25;;;;;;;;;;5019705;28;20037;-68
2021/03/25 09:05:41;;;;;;;41.20;18.08;;;;;;;;;;5019759;28;21034;-68
2021/03/25 09:08:11;;;;;;;39.67;17.35;;;;;;;;;;5018069;28;20056;-68
2021/03/25 09:10:48;;;;;;;39.05;17.13;;;;;;;;;;5019258;28;20404;-69
2021/03/25 09:13:17;;;;;;;36.85;16.05;;;;;;;;;;5019251;28;20102;-69
2021/03/25 09:15:46;;;;;;;31.70;15.52;;;;;;;;;;5003147;28;20140;-69
2021/03/25 09:18:17;;;;;;;34.40;16.02;;;;;;;;;;5018879;28;22485;-67
2021/03/25 09:20:45;;;;;;;31.08;15.13;;;;;;;;;;5020110;28;20048;-68
2021/03/25 09:23:32;;;;;;;35.30;15.07;;;;;;;;;;5008749;28;20579;-68
2021/03/25 09:26:02;;;;;;;31.15;15.27;;;;;;;;;;5019098;28;20532;-67
2021/03/25 09:28:49;;;;;;;33.95;16.50;;;;;;;;;;5018730;28;20025;-69
2021/03/25 09:31:17;;;;;;;36.33;15.60;;;;;;;;;;5019245;28;20131;-68
2021/03/25 09:33:52;;;;;;;30.08;14.45;;;;;;;;;;5016916;28;20045;-67
2021/03/25 09:36:23;;;;;;;28.95;15.05;;;;;;;;;;5016845;28;20448;-67
2021/03/25 09:39:13;;;;;;;31.48;13.98;;;;;;;;;;5000894;28;20033;-67
2021/03/25 09:41:41;;;;;;;33.05;14.85;;;;;;;;;;5016699;28;20033;-68
2021/03/25 09:44:17;;;;;;;29.60;14.23;;;;;;;;;;5021687;28;20090;-69
2021/03/25 09:46:42;;;;;;;27.58;14.35;;;;;;;;;;5017989;28;20033;-68
2021/03/25 09:49:14;;;;;;;30.48;13.85;;;;;;;;;;5023585;28;20044;-66
2021/03/25 09:51:43;;;;;;;30.52;14.43;;;;;;;;;;5019244;28;20041;-67
2021/03/25 09:54:25;;;;;;;28.92;12.60;;;;;;;;;;5004233;28;20083;-67
2021/03/25 09:57:17;;;;;;;26.42;12.93;;;;;;;;;;5000564;28;20030;-68
2021/03/25 09:59:45;;;;;;;25.67;12.15;;;;;;;;;;5007436;28;20107;-68
2021/03/25 10:02:11;;;;;;;26.55;11.82;;;;;;;;;;5004304;28;20040;-67
2021/03/25 10:04:41;;;;;;;32.50;14.80;;;;;;;;;;5018836;28;20037;-68
2021/03/25 10:07:12;;;;;;;30.20;13.90;;;;;;;;;;5020435;28;20140;-67
2021/03/25 10:09:49;;;;;;;31.73;13.18;;;;;;;;;;5017902;28;20630;-67
2021/03/25 10:12:34;;;;;;;27.35;13.10;;;;;;;;;;5017132;28;21107;-67
2021/03/25 10:15:02;;;;;;;27.17;12.63;;;;;;;;;;5015740;28;20424;-67
2021/03/25 10:17:50;;;;;;;31.98;12.10;;;;;;;;;;5018854;28;20036;-70
2021/03/25 10:20:36;;;;;;;28.80;12.20;;;;;;;;;;5003796;28;21839;-68
2021/03/25 10:23:04;;;;;;;27.33;11.55;;;;;;;;;;5019038;28;20250;-69
2021/03/25 10:25:30;;;;;;;30.95;11.77;;;;;;;;;;5003729;28;20110;-67
2021/03/25 10:27:58;;;;;;;25.73;10.65;;;;;;;;;;5003805;28;20101;-67
2021/03/25 10:30:23;;;;;;;26.85;11.93;;;;;;;;;;5021513;28;20050;-68
2021/03/25 10:32:52;;;;;;;17.60;10.23;;;;;;;;;;5018316;28;20067;-66
2021/03/25 10:35:26;;;;;;;25.48;11.82;;;;;;;;;;5033753;28;20041;-68
2021/03/25 10:37:57;;;;;;;29.38;12.00;;;;;;;;;;5017136;28;21578;-68
2021/03/25 10:40:22;;;;;;;28.95;11.77;;;;;;;;;;5000092;28;20082;-67
2021/03/25 10:43:02;;;;;;;27.38;11.50;;;;;;;;;;5017436;28;20062;-67
2021/03/25 10:45:45;;;;;;;22.27;11.60;;;;;;;;;;5012051;28;20685;-67
2021/03/25 10:48:39;;;;;;;22.33;10.65;;;;;;;;;;5016329;28;20052;-68
2021/03/25 10:51:15;;;;;;;21.93;11.07;;;;;;;;;;5004393;28;20080;-66
2021/03/25 10:53:47;;;;;;;24.20;11.77;;;;;;;;;;5014114;28;20303;-68
2021/03/25 10:56:20;;;;;;;25.90;10.38;;;;;;;;;;5017975;28;20040;-66
2021/03/25 10:59:07;;;;;;;24.75;11.65;;;;;;;;;;5016404;28;20479;-67
2021/03/25 11:01:34;;;;;;;19.17;10.38;;;;;;;;;;5017927;28;20033;-67
2021/03/25 11:04:02;;;;;;;23.38;10.68;;;;;;;;;;5015067;28;20033;-67
2021/03/25 11:06:33;;;;;;;25.90;11.48;;;;;;;;;;5019159;28;20033;-68
2021/03/25 11:09:10;;;;;;;23.00;11.27;;;;;;;;;;5016994;28;20033;-66
2021/03/25 11:11:39;;;;;;;21.63;11.02;;;;;;;;;;5019602;28;20029;-67
2021/03/25 11:14:04;;;;;;;24.15;11.80;;;;;;;;;;5015975;28;20156;-68
2021/03/25 11:16:32;;;;;;;30.48;12.93;;;;;;;;;;5016890;28;20078;-68
2021/03/25 11:19:00;;;;;;;30.05;12.32;;;;;;;;;;5001165;28;20552;-70
2021/03/25 11:21:30;;;;;;;23.42;11.38;;;;;;;;;;5016720;28;20025;-67
2021/03/25 11:24:01;;;;;;;26.27;13.05;;;;;;;;;;5015187;28;20057;-67
2021/03/25 11:26:29;;;;;;;24.38;11.55;;;;;;;;;;5002937;28;20633;-67
2021/03/25 11:28:55;;;;;;;23.17;11.30;;;;;;;;;;5019382;28;20057;-67
2021/03/25 11:31:25;;;;;;;25.20;11.75;;;;;;;;;;5015960;28;20126;-67
2021/03/25 11:33:56;;;;;;;23.25;11.32;;;;;;;;;;5012438;28;20055;-67
2021/03/25 11:36:37;;;;;;;24.77;12.93;;;;;;;;;;5018707;28;20075;-67
2021/03/25 11:39:15;;;;;;;28.45;12.32;;;;;;;;;;5013828;28;20103;-67
2021/03/25 11:41:41;;;;;;;27.58;12.45;;;;;;;;;;5014456;28;20288;-70
2021/03/25 11:44:12;;;;;;;28.38;11.50;;;;;;;;;;5015749;28;20965;-67
2021/03/25 11:46:45;;;;;;;30.92;12.90;;;;;;;;;;4999016;28;20503;-66
2021/03/25 11:49:28;;;;;;;30.85;11.95;;;;;;;;;;5013503;28;20042;-67
2021/03/25 11:51:54;;;;;;;29.25;12.13;;;;;;;;;;5017224;28;20091;-67
2021/03/25 11:54:25;;;;;;;26.17;12.23;;;;;;;;;;5017390;28;20037;-68
2021/03/25 11:56:52;;;;;;;30.00;12.23;;;;;;;;;;5016232;28;20033;-66
2021/03/25 11:59:18;;;;;;;31.48;12.15;;;;;;;;;;5014890;28;20064;-67
2021/03/25 12:02:05;;;;;;;36.40;11.95;;;;;;;;;;5019929;28;20055;-67
2021/03/25 12:04:32;;;;;;;22.90;10.68;;;;;;;;;;5013448;28;20060;-67
2021/03/25 12:07:03;;;;;;;28.75;12.13;;;;;;;;;;5016213;28;20032;-65
2021/03/25 12:09:32;;;;;;;28.83;12.10;;;;;;;;;;5015071;28;20954;-65
2021/03/25 12:12:00;;;;;;;22.25;12.13;;;;;;;;;;5014373;28;20116;-67
2021/03/25 12:14:30;;;;;;;23.08;11.95;;;;;;;;;;5020087;28;20020;-68
2021/03/25 12:17:04;;;;;;;26.52;12.93;;;;;;;;;;5017790;28;20064;-68
2021/03/25 12:19:37;;;;;;;27.35;11.77;;;;;;;;;;4998591;28;20043;-68
2021/03/25 12:22:06;;;;;;;28.15;13.57;;;;;;;;;;4991998;28;20087;-70
2021/03/25 12:24:32;;;;;;;25.20;13.27;;;;;;;;;;5015065;28;20043;-69
2021/03/25 12:26:58;;;;;;;28.10;13.52;;;;;;;;;;5014620;28;20025;-68
2021/03/25 12:29:26;;;;;;;33.92;14.43;;;;;;;;;;5003256;28;20056;-68
2021/03/25 12:31:55;;;;;;;37.92;14.98;;;;;;;;;;5017002;28;20042;-69
2021/03/25 12:34:23;;;;;;;29.55;14.80;;;;;;;;;;4998412;28;20173;-66
2021/03/25 12:36:53;;;;;;;31.42;16.00;;;;;;;;;;5019418;28;20057;-68
2021/03/25 12:39:24;;;;;;;33.33;14.85;;;;;;;;;;5018865;28;20037;-68
2021/03/25 12:41:51;;;;;;;31.85;14.00;;;;;;;;;;5024559;28;20018;-68
2021/03/25 12:44:22;;;;;;;34.35;15.68;;;;;;;;;;5021033;28;20049;-68
2021/03/25 12:46:47;;;;;;;34.47;15.57;;;;;;;;;;5019521;28;20045;-69
2021/03/25 12:49:13;;;;;;;29.65;15.20;;;;;;;;;;5020166;28;20033;-68
2021/03/25 12:51:38;;;;;;;33.22;15.90;;;;;;;;;;5019262;28;20043;-67
2021/03/25 12:54:04;;;;;;;36.70;15.98;;;;;;;;;;4990409;28;20103;-68
2021/03/25 12:56:34;;;;;;;31.00;16.00;;;;;;;;;;5019279;28;20622;-68
2021/03/25 12:59:02;;;;;;;29.70;16.67;;;;;;;;;;5021489;28;22214;-68
2021/03/25 13:01:29;;;;;;;37.70;17.08;;;;;;;;;;5007927;28;20127;-68
2021/03/25 13:03:54;;;;;;;35.58;18.15;;;;;;;;;;5021436;28;20456;-67
2021/03/25 13:06:26;;;;;;;36.72;18.48;;;;;;;;;;5020814;28;20033;-68
2021/03/25 13:08:51;;;;;;;36.50;18.80;;;;;;;;;;5010491;28;20055;-67
2021/03/25 13:11:20;;;;;;;44.72;19.02;;;;;;;;;;5017458;28;20033;-67
2021/03/25 13:13:45;;;;;;;44.53;18.20;;;;;;;;;;5019049;28;20030;-66
2021/03/25 13:16:15;;;;;;;28.38;15.90;;;;;;;;;;5019882;28;20121;-67
2021/03/25 13:18:44;;;;;;;32.60;16.25;;;;;;;;;;5015912;28;20668;-67
2021/03/25 13:21:10;;;;;;;37.55;15.25;;;;;;;;;;5007263;28;20142;-67
2021/03/25 13:23:36;;;;;;;31.20;15.02;;;;;;;;;;5007075;28;20041;-69
2021/03/25 13:26:07;;;;;;;41.17;17.90;;;;;;;;;;5006017;28;20039;-68
2021/03/25 13:28:34;;;;;;;38.13;19.95;;;;;;;;;;5019010;28;20061;-65
2021/03/25 13:31:02;;;;;;;49.55;20.65;;;;;;;;;;5023411;28;20619;-65
2021/03/25 13:33:31;;;;;;;52.30;23.02;;;;;;;;;;5018957;28;20036;-66
2021/03/25 13:35:57;;;;;;;56.38;23.42;;;;;;;;;;5009254;28;20045;-65
2021/03/25 13:38:23;;;;;;;58.83;24.33;;;;;;;;;;5013741;28;20078;-64
2021/03/25 13:40:49;;;;;;;52.10;23.50;;;;;;;;;;5007710;28;20032;-66
2021/03/25 13:43:18;;;;;;;48.95;23.33;;;;;;;;;;5017408;28;20677;-65
2021/03/25 13:45:49;;;;;;;54.67;25.38;;;;;;;;;;5016562;28;20030;-68
2021/03/25 13:48:18;;;;;;;48.95;22.80;;;;;;;;;;5019524;28;20033;-67
2021/03/25 13:50:44;;;;;;;52.20;24.95;;;;;;;;;;4998133;28;20040;-68
2021/03/25 13:53:10;;;;;;;53.97;23.38;;;;;;;;;;5005856;28;20045;-66
2021/03/25 13:55:38;;;;;;;42.25;20.25;;;;;;;;;;5019938;28;21918;-67
2021/03/25 13:58:08;;;;;;;33.22;16.92;;;;;;;;;;5021012;28;20060;-63
2021/03/25 14:00:39;;;;;;;33.17;16.25;;;;;;;;;;5020251;28;20107;-69
2021/03/25 14:03:08;;;;;;;25.27;14.20;;;;;;;;;;5008557;28;20035;-70
2021/03/25 14:05:34;;;;;;;30.33;14.70;;;;;;;;;;5021069;28;20060;-70
2021/03/25 14:08:00;;;;;;;27.65;14.57;;;;;;;;;;5019370;28;20952;-69
2021/03/25 14:10:31;;;;;;;23.63;12.57;;;;;;;;;;5016965;28;20426;-64
2021/03/25 14:12:59;;;;;;;24.20;12.88;;;;;;;;;;5014887;28;20160;-70
2021/03/25 14:15:30;;;;;;;22.33;12.73;;;;;;;;;;5018927;28;20044;-68
2021/03/25 14:17:56;;;;;;;20.17;10.63;;;;;;;;;;5019201;28;20379;-68
2021/03/25 14:20:24;;;;;;;21.63;10.88;;;;;;;;;;5015954;28;20755;-68
2021/03/25 14:22:49;;;;;;;20.63;10.90;;;;;;;;;;5017521;28;20155;-69
2021/03/25 14:25:35;;;;;;;18.27;9.55;;;;;;;;;;5016333;28;20591;-68
2021/03/25 14:28:01;;;;;;;21.60;10.85;;;;;;;;;;5016195;28;20056;-67
2021/03/25 14:30:28;;;;;;;24.92;11.88;;;;;;;;;;5012775;28;20064;-67
2021/03/25 14:32:53;;;;;;;31.95;12.75;;;;;;;;;;5021394;28;20037;-66
2021/03/25 14:35:24;;;;;;;26.88;13.25;;;;;;;;;;5015158;28;20029;-63
2021/03/25 14:37:52;;;;;;;23.02;12.50;;;;;;;;;;5016517;28;20674;-68
2021/03/25 14:40:18;;;;;;;37.97;13.52;;;;;;;;;;5007725;28;20036;-67
2021/03/25 14:42:44;;;;;;;27.58;11.80;;;;;;;;;;5016696;28;20037;-69
2021/03/25 14:45:12;;;;;;;26.52;11.25;;;;;;;;;;4997606;28;20060;-68
2021/03/25 14:47:41;;;;;;;21.30;10.18;;;;;;;;;;5012746;28;20650;-67